sensor_id;sensor_type;location;lat;lon;timestamp;temperature;humidity
26537;DHT22;14204;51.262;5.488;2023-08-31T00:00:32;15.30;99.90
26537;DHT22;14204;51.262;5.488;2023-08-31T00:03:00;15.20;99.90
26537;DHT22;14204;51.262;5.488;2023-08-31T00:05:25;15.20;99.90
26537;DHT22;14204;51.262;5.488;2023-08-31T00:07:54;15.20;99.90
26537;DHT22;14204;51.262;5.488;2023-08-31T00:10:20;15.20;99.90
26537;DHT22;14204;51.262;5.488;2023-08-31T00:12:46;15.20;99.90
26537;DHT22;14204;51.262;5.488;2023-08-31T00:15:11;15.20;99.90
26537;DHT22;14204;51.262;5.488;2023-08-31T00:17:37;15.20;99.90
26537;DHT22;14204;51.262;5.488;2023-08-31T00:20:04;15.10;99.90
26537;DHT22;14204;51.262;5.488;2023-08-31T00:22:32;15.20;99.90
26537;DHT22;14204;51.262;5.488;2023-08-31T00:24:58;15.10;99.90
26537;DHT22;14204;51.262;5.488;2023-08-31T00:27:23;15.10;99.90
26537;DHT22;14204;51.262;5.488;2023-08-31T00:29:49;15.10;99.90
26537;DHT22;14204;51.262;5.488;2023-08-31T00:32:17;15.10;99.90
26537;DHT22;14204;51.262;5.488;2023-08-31T00:34:44;15.10;99.90
26537;DHT22;14204;51.262;5.488;2023-08-31T00:37:09;15.10;99.90
26537;DHT22;14204;51.262;5.488;2023-08-31T00:39:35;15.00;99.90
26537;DHT22;14204;51.262;5.488;2023-08-31T00:42:01;15.00;99.90
26537;DHT22;14204;51.262;5.488;2023-08-31T00:44:27;15.00;99.90
26537;DHT22;14204;51.262;5.488;2023-08-31T00:46:52;15.00;99.90
26537;DHT22;14204;51.262;5.488;2023-08-31T00:49:18;15.00;99.90
26537;DHT22;14204;51.262;5.488;2023-08-31T00:51:45;15.00;99.90
26537;DHT22;14204;51.262;5.488;2023-08-31T00:54:19;14.90;99.90
26537;DHT22;14204;51.262;5.488;2023-08-31T00:56:46;14.90;99.90
26537;DHT22;14204;51.262;5.488;2023-08-31T00:59:17;14.90;99.90
26537;DHT22;14204;51.262;5.488;2023-08-31T01:01:51;14.90;99.90
26537;DHT22;14204;51.262;5.488;2023-08-31T01:04:24;14.90;99.90
26537;DHT22;14204;51.262;5.488;2023-08-31T01:07:25;14.80;99.90
26537;DHT22;14204;51.262;5.488;2023-08-31T01:10:19;14.80;99.90
26537;DHT22;14204;51.262;5.488;2023-08-31T01:12:50;14.80;99.90
26537;DHT22;14204;51.262;5.488;2023-08-31T01:15:18;14.70;99.90
26537;DHT22;14204;51.262;5.488;2023-08-31T01:17:47;14.70;99.90
26537;DHT22;14204;51.262;5.488;2023-08-31T01:20:17;14.70;99.90
26537;DHT22;14204;51.262;5.488;2023-08-31T01:23:01;14.70;99.90
26537;DHT22;14204;51.262;5.488;2023-08-31T01:25:29;14.70;99.90
26537;DHT22;14204;51.262;5.488;2023-08-31T01:27:57;14.70;99.90
26537;DHT22;14204;51.262;5.488;2023-08-31T01:30:23;14.60;99.90
26537;DHT22;14204;51.262;5.488;2023-08-31T01:32:49;14.60;99.90
26537;DHT22;14204;51.262;5.488;2023-08-31T01:35:17;14.60;99.90
26537;DHT22;14204;51.262;5.488;2023-08-31T01:40:22;14.50;99.90
26537;DHT22;14204;51.262;5.488;2023-08-31T01:42:49;14.60;99.90
26537;DHT22;14204;51.262;5.488;2023-08-31T01:45:25;14.50;99.90
26537;DHT22;14204;51.262;5.488;2023-08-31T01:47:51;14.50;99.90
26537;DHT22;14204;51.262;5.488;2023-08-31T01:50:17;14.50;99.90
26537;DHT22;14204;51.262;5.488;2023-08-31T01:52:42;14.50;99.90
26537;DHT22;14204;51.262;5.488;2023-08-31T01:55:08;14.50;99.90
26537;DHT22;14204;51.262;5.488;2023-08-31T01:57:34;14.30;99.90
26537;DHT22;14204;51.262;5.488;2023-08-31T02:00:00;14.30;99.90
26537;DHT22;14204;51.262;5.488;2023-08-31T02:02:26;14.30;99.90
26537;DHT22;14204;51.262;5.488;2023-08-31T02:04:51;14.30;99.90
26537;DHT22;14204;51.262;5.488;2023-08-31T02:07:17;14.30;99.90
26537;DHT22;14204;51.262;5.488;2023-08-31T02:09:43;14.30;99.90
26537;DHT22;14204;51.262;5.488;2023-08-31T02:12:09;14.40;99.90
26537;DHT22;14204;51.262;5.488;2023-08-31T02:14:37;14.40;99.90
26537;DHT22;14204;51.262;5.488;2023-08-31T02:17:04;14.40;99.90
26537;DHT22;14204;51.262;5.488;2023-08-31T02:19:30;14.40;99.90
26537;DHT22;14204;51.262;5.488;2023-08-31T02:21:55;14.40;99.90
26537;DHT22;14204;51.262;5.488;2023-08-31T02:24:21;14.30;99.90
26537;DHT22;14204;51.262;5.488;2023-08-31T02:26:48;14.30;99.90
26537;DHT22;14204;51.262;5.488;2023-08-31T02:29:14;14.30;99.90
26537;DHT22;14204;51.262;5.488;2023-08-31T02:31:39;14.30;99.90
26537;DHT22;14204;51.262;5.488;2023-08-31T02:34:07;14.20;99.90
26537;DHT22;14204;51.262;5.488;2023-08-31T02:36:32;14.20;99.90
26537;DHT22;14204;51.262;5.488;2023-08-31T02:38:58;14.10;99.90
26537;DHT22;14204;51.262;5.488;2023-08-31T02:41:24;14.10;99.90
26537;DHT22;14204;51.262;5.488;2023-08-31T02:43:50;14.10;99.90
26537;DHT22;14204;51.262;5.488;2023-08-31T02:46:17;14.10;99.90
26537;DHT22;14204;51.262;5.488;2023-08-31T02:48:44;14.10;99.90
26537;DHT22;14204;51.262;5.488;2023-08-31T02:51:09;14.10;99.90
26537;DHT22;14204;51.262;5.488;2023-08-31T02:53:35;14.10;99.90
26537;DHT22;14204;51.262;5.488;2023-08-31T02:56:01;14.00;99.90
26537;DHT22;14204;51.262;5.488;2023-08-31T02:58:27;14.00;99.90
26537;DHT22;14204;51.262;5.488;2023-08-31T03:00:53;14.10;99.90
26537;DHT22;14204;51.262;5.488;2023-08-31T03:03:19;14.00;99.90
26537;DHT22;14204;51.262;5.488;2023-08-31T03:05:45;14.00;99.90
26537;DHT22;14204;51.262;5.488;2023-08-31T03:08:11;14.10;99.90
26537;DHT22;14204;51.262;5.488;2023-08-31T03:10:38;14.10;99.90
26537;DHT22;14204;51.262;5.488;2023-08-31T03:13:04;14.00;99.90
26537;DHT22;14204;51.262;5.488;2023-08-31T03:15:32;14.00;99.90
26537;DHT22;14204;51.262;5.488;2023-08-31T03:17:58;14.00;99.90
26537;DHT22;14204;51.262;5.488;2023-08-31T03:20:23;13.90;99.90
26537;DHT22;14204;51.262;5.488;2023-08-31T03:22:49;13.90;99.90
26537;DHT22;14204;51.262;5.488;2023-08-31T03:25:15;13.90;99.90
26537;DHT22;14204;51.262;5.488;2023-08-31T03:27:40;13.90;99.90
26537;DHT22;14204;51.262;5.488;2023-08-31T03:30:07;13.90;99.90
26537;DHT22;14204;51.262;5.488;2023-08-31T03:32:33;13.90;99.90
26537;DHT22;14204;51.262;5.488;2023-08-31T03:34:59;13.90;99.90
26537;DHT22;14204;51.262;5.488;2023-08-31T03:37:26;13.90;99.90
26537;DHT22;14204;51.262;5.488;2023-08-31T03:39:52;13.90;99.90
26537;DHT22;14204;51.262;5.488;2023-08-31T03:42:18;13.90;99.90
26537;DHT22;14204;51.262;5.488;2023-08-31T03:44:44;14.00;99.90
26537;DHT22;14204;51.262;5.488;2023-08-31T03:47:09;13.90;99.90
26537;DHT22;14204;51.262;5.488;2023-08-31T03:49:35;13.90;99.90
26537;DHT22;14204;51.262;5.488;2023-08-31T03:52:01;13.80;99.90
26537;DHT22;14204;51.262;5.488;2023-08-31T03:54:26;13.80;99.90
26537;DHT22;14204;51.262;5.488;2023-08-31T03:56:52;13.80;99.90
26537;DHT22;14204;51.262;5.488;2023-08-31T03:59:18;13.80;99.90
26537;DHT22;14204;51.262;5.488;2023-08-31T04:01:44;13.80;99.90
26537;DHT22;14204;51.262;5.488;2023-08-31T04:04:09;13.80;99.90
26537;DHT22;14204;51.262;5.488;2023-08-31T04:06:35;13.80;99.90
26537;DHT22;14204;51.262;5.488;2023-08-31T04:09:01;13.80;99.90
26537;DHT22;14204;51.262;5.488;2023-08-31T04:11:26;13.70;99.90
26537;DHT22;14204;51.262;5.488;2023-08-31T04:13:52;13.60;99.90
26537;DHT22;14204;51.262;5.488;2023-08-31T04:16:18;13.70;99.90
26537;DHT22;14204;51.262;5.488;2023-08-31T04:18:44;13.70;99.90
26537;DHT22;14204;51.262;5.488;2023-08-31T04:21:17;13.70;99.90
26537;DHT22;14204;51.262;5.488;2023-08-31T04:23:42;13.70;99.90
26537;DHT22;14204;51.262;5.488;2023-08-31T04:26:12;13.70;99.90
26537;DHT22;14204;51.262;5.488;2023-08-31T04:28:39;13.70;99.90
26537;DHT22;14204;51.262;5.488;2023-08-31T04:31:06;13.70;99.90
26537;DHT22;14204;51.262;5.488;2023-08-31T04:33:36;13.60;99.90
26537;DHT22;14204;51.262;5.488;2023-08-31T04:36:03;13.60;99.90
26537;DHT22;14204;51.262;5.488;2023-08-31T04:38:30;13.70;99.90
26537;DHT22;14204;51.262;5.488;2023-08-31T04:41:00;13.70;99.90
26537;DHT22;14204;51.262;5.488;2023-08-31T04:43:26;13.70;99.90
26537;DHT22;14204;51.262;5.488;2023-08-31T04:45:52;13.70;99.90
26537;DHT22;14204;51.262;5.488;2023-08-31T04:48:17;13.60;99.90
26537;DHT22;14204;51.262;5.488;2023-08-31T04:50:43;13.60;99.90
26537;DHT22;14204;51.262;5.488;2023-08-31T04:53:09;13.60;99.90
26537;DHT22;14204;51.262;5.488;2023-08-31T04:55:35;13.50;99.90
26537;DHT22;14204;51.262;5.488;2023-08-31T04:58:00;13.50;99.90
26537;DHT22;14204;51.262;5.488;2023-08-31T05:00:26;13.50;99.90
26537;DHT22;14204;51.262;5.488;2023-08-31T05:02:51;13.60;99.90
26537;DHT22;14204;51.262;5.488;2023-08-31T05:05:17;13.60;99.90
26537;DHT22;14204;51.262;5.488;2023-08-31T05:07:46;13.60;99.90
26537;DHT22;14204;51.262;5.488;2023-08-31T05:10:11;13.60;99.90
26537;DHT22;14204;51.262;5.488;2023-08-31T05:12:37;13.60;99.90
26537;DHT22;14204;51.262;5.488;2023-08-31T05:15:03;13.60;99.90
26537;DHT22;14204;51.262;5.488;2023-08-31T05:17:29;13.60;99.90
26537;DHT22;14204;51.262;5.488;2023-08-31T05:19:55;13.50;99.90
26537;DHT22;14204;51.262;5.488;2023-08-31T05:22:21;13.50;99.90
26537;DHT22;14204;51.262;5.488;2023-08-31T05:24:48;13.50;99.90
26537;DHT22;14204;51.262;5.488;2023-08-31T05:27:13;13.60;99.90
26537;DHT22;14204;51.262;5.488;2023-08-31T05:29:39;13.50;99.90
26537;DHT22;14204;51.262;5.488;2023-08-31T05:32:05;13.60;99.90
26537;DHT22;14204;51.262;5.488;2023-08-31T05:34:31;13.60;99.90
26537;DHT22;14204;51.262;5.488;2023-08-31T05:37:00;13.60;99.90
26537;DHT22;14204;51.262;5.488;2023-08-31T05:39:26;13.60;99.90
26537;DHT22;14204;51.262;5.488;2023-08-31T05:41:51;13.60;99.90
26537;DHT22;14204;51.262;5.488;2023-08-31T05:44:17;13.70;99.90
26537;DHT22;14204;51.262;5.488;2023-08-31T05:46:43;13.70;99.90
26537;DHT22;14204;51.262;5.488;2023-08-31T05:49:08;13.70;99.90
26537;DHT22;14204;51.262;5.488;2023-08-31T05:51:34;13.70;99.90
26537;DHT22;14204;51.262;5.488;2023-08-31T05:54:00;13.80;99.90
26537;DHT22;14204;51.262;5.488;2023-08-31T05:56:26;13.80;99.90
26537;DHT22;14204;51.262;5.488;2023-08-31T05:58:52;13.80;99.90
26537;DHT22;14204;51.262;5.488;2023-08-31T06:01:20;13.80;99.90
26537;DHT22;14204;51.262;5.488;2023-08-31T06:03:46;13.80;99.90
26537;DHT22;14204;51.262;5.488;2023-08-31T06:06:11;13.80;99.90
26537;DHT22;14204;51.262;5.488;2023-08-31T06:09:05;13.80;99.90
26537;DHT22;14204;51.262;5.488;2023-08-31T06:11:32;13.80;99.90
26537;DHT22;14204;51.262;5.488;2023-08-31T06:13:58;13.80;99.90
26537;DHT22;14204;51.262;5.488;2023-08-31T06:16:23;13.80;99.90
26537;DHT22;14204;51.262;5.488;2023-08-31T06:18:49;13.80;99.90
26537;DHT22;14204;51.262;5.488;2023-08-31T06:21:15;13.80;99.90
26537;DHT22;14204;51.262;5.488;2023-08-31T06:23:41;13.90;99.90
26537;DHT22;14204;51.262;5.488;2023-08-31T06:26:06;13.90;99.90
26537;DHT22;14204;51.262;5.488;2023-08-31T06:28:32;14.00;99.90
26537;DHT22;14204;51.262;5.488;2023-08-31T06:30:59;14.00;99.90
26537;DHT22;14204;51.262;5.488;2023-08-31T06:33:25;13.90;99.90
26537;DHT22;14204;51.262;5.488;2023-08-31T06:35:50;14.00;99.90
26537;DHT22;14204;51.262;5.488;2023-08-31T06:38:18;14.00;99.90
26537;DHT22;14204;51.262;5.488;2023-08-31T06:40:44;14.00;99.90
26537;DHT22;14204;51.262;5.488;2023-08-31T06:43:09;14.10;99.90
26537;DHT22;14204;51.262;5.488;2023-08-31T06:45:35;14.20;99.90
26537;DHT22;14204;51.262;5.488;2023-08-31T06:48:01;14.20;99.90
26537;DHT22;14204;51.262;5.488;2023-08-31T06:50:27;14.20;99.90
26537;DHT22;14204;51.262;5.488;2023-08-31T06:52:53;14.20;99.90
26537;DHT22;14204;51.262;5.488;2023-08-31T06:55:19;14.20;99.90
26537;DHT22;14204;51.262;5.488;2023-08-31T06:57:44;14.30;99.90
26537;DHT22;14204;51.262;5.488;2023-08-31T07:00:11;14.30;99.90
26537;DHT22;14204;51.262;5.488;2023-08-31T07:02:40;14.40;99.90
26537;DHT22;14204;51.262;5.488;2023-08-31T07:05:09;14.40;99.90
26537;DHT22;14204;51.262;5.488;2023-08-31T07:07:36;14.40;99.90
26537;DHT22;14204;51.262;5.488;2023-08-31T07:10:01;14.50;99.90
26537;DHT22;14204;51.262;5.488;2023-08-31T07:12:27;14.60;99.90
26537;DHT22;14204;51.262;5.488;2023-08-31T07:14:53;14.60;99.90
26537;DHT22;14204;51.262;5.488;2023-08-31T07:17:19;14.70;99.90
26537;DHT22;14204;51.262;5.488;2023-08-31T07:19:45;14.70;99.90
26537;DHT22;14204;51.262;5.488;2023-08-31T07:22:11;14.80;99.90
26537;DHT22;14204;51.262;5.488;2023-08-31T07:24:37;14.90;99.90
26537;DHT22;14204;51.262;5.488;2023-08-31T07:27:03;14.90;99.90
26537;DHT22;14204;51.262;5.488;2023-08-31T07:29:30;15.00;99.90
26537;DHT22;14204;51.262;5.488;2023-08-31T07:31:57;15.00;99.90
26537;DHT22;14204;51.262;5.488;2023-08-31T07:34:23;15.10;99.90
26537;DHT22;14204;51.262;5.488;2023-08-31T07:36:49;15.20;99.90
26537;DHT22;14204;51.262;5.488;2023-08-31T07:39:15;15.20;99.90
26537;DHT22;14204;51.262;5.488;2023-08-31T07:41:43;15.30;99.90
26537;DHT22;14204;51.262;5.488;2023-08-31T07:44:09;15.40;99.90
26537;DHT22;14204;51.262;5.488;2023-08-31T07:46:35;15.50;99.90
26537;DHT22;14204;51.262;5.488;2023-08-31T07:49:01;15.60;99.90
26537;DHT22;14204;51.262;5.488;2023-08-31T07:51:28;15.70;99.90
26537;DHT22;14204;51.262;5.488;2023-08-31T07:53:54;15.70;99.90
26537;DHT22;14204;51.262;5.488;2023-08-31T07:56:19;15.80;99.90
26537;DHT22;14204;51.262;5.488;2023-08-31T07:58:45;15.90;99.90
26537;DHT22;14204;51.262;5.488;2023-08-31T08:01:11;16.00;99.90
26537;DHT22;14204;51.262;5.488;2023-08-31T08:03:36;16.10;99.90
26537;DHT22;14204;51.262;5.488;2023-08-31T08:06:02;16.20;99.90
26537;DHT22;14204;51.262;5.488;2023-08-31T08:08:29;16.20;99.90
26537;DHT22;14204;51.262;5.488;2023-08-31T08:10:55;16.30;99.90
26537;DHT22;14204;51.262;5.488;2023-08-31T08:13:21;16.40;99.90
26537;DHT22;14204;51.262;5.488;2023-08-31T08:15:46;16.60;99.90
26537;DHT22;14204;51.262;5.488;2023-08-31T08:18:12;16.60;99.90
26537;DHT22;14204;51.262;5.488;2023-08-31T08:20:38;16.80;99.90
26537;DHT22;14204;51.262;5.488;2023-08-31T08:23:05;16.80;99.90
26537;DHT22;14204;51.262;5.488;2023-08-31T08:25:32;16.90;99.90
26537;DHT22;14204;51.262;5.488;2023-08-31T08:27:58;17.10;99.90
26537;DHT22;14204;51.262;5.488;2023-08-31T08:30:23;17.10;99.90
26537;DHT22;14204;51.262;5.488;2023-08-31T08:32:49;17.00;99.90
26537;DHT22;14204;51.262;5.488;2023-08-31T08:35:15;17.20;99.90
26537;DHT22;14204;51.262;5.488;2023-08-31T08:37:40;17.20;99.90
26537;DHT22;14204;51.262;5.488;2023-08-31T08:40:07;17.30;99.90
26537;DHT22;14204;51.262;5.488;2023-08-31T08:42:41;17.40;99.90
26537;DHT22;14204;51.262;5.488;2023-08-31T08:45:11;17.50;99.90
26537;DHT22;14204;51.262;5.488;2023-08-31T08:47:39;17.50;99.90
26537;DHT22;14204;51.262;5.488;2023-08-31T08:50:06;17.70;99.90
26537;DHT22;14204;51.262;5.488;2023-08-31T08:52:32;17.80;99.90
26537;DHT22;14204;51.262;5.488;2023-08-31T08:54:58;17.90;99.90
26537;DHT22;14204;51.262;5.488;2023-08-31T08:57:24;18.00;99.90
26537;DHT22;14204;51.262;5.488;2023-08-31T08:59:50;18.20;99.90
26537;DHT22;14204;51.262;5.488;2023-08-31T09:02:16;18.40;99.90
26537;DHT22;14204;51.262;5.488;2023-08-31T09:04:41;18.50;99.90
26537;DHT22;14204;51.262;5.488;2023-08-31T09:07:08;18.50;99.90
26537;DHT22;14204;51.262;5.488;2023-08-31T09:09:48;18.70;99.90
26537;DHT22;14204;51.262;5.488;2023-08-31T09:12:15;18.80;99.90
26537;DHT22;14204;51.262;5.488;2023-08-31T09:14:40;18.80;99.90
26537;DHT22;14204;51.262;5.488;2023-08-31T09:17:06;19.00;99.90
26537;DHT22;14204;51.262;5.488;2023-08-31T09:19:31;19.00;99.90
26537;DHT22;14204;51.262;5.488;2023-08-31T09:21:57;19.20;99.90
26537;DHT22;14204;51.262;5.488;2023-08-31T09:24:23;19.40;99.90
26537;DHT22;14204;51.262;5.488;2023-08-31T09:26:57;19.40;99.90
26537;DHT22;14204;51.262;5.488;2023-08-31T09:29:24;19.40;99.90
26537;DHT22;14204;51.262;5.488;2023-08-31T09:31:50;19.50;99.90
26537;DHT22;14204;51.262;5.488;2023-08-31T09:34:16;19.70;99.90
26537;DHT22;14204;51.262;5.488;2023-08-31T09:36:43;19.70;99.90
26537;DHT22;14204;51.262;5.488;2023-08-31T09:39:09;19.60;99.90
26537;DHT22;14204;51.262;5.488;2023-08-31T09:41:35;19.60;99.90
26537;DHT22;14204;51.262;5.488;2023-08-31T09:44:18;19.60;99.90
26537;DHT22;14204;51.262;5.488;2023-08-31T09:46:45;19.60;99.90
26537;DHT22;14204;51.262;5.488;2023-08-31T09:49:15;19.70;99.90
26537;DHT22;14204;51.262;5.488;2023-08-31T09:51:46;19.70;99.90
26537;DHT22;14204;51.262;5.488;2023-08-31T09:54:14;19.70;99.90
26537;DHT22;14204;51.262;5.488;2023-08-31T09:56:42;19.70;99.90
26537;DHT22;14204;51.262;5.488;2023-08-31T09:59:09;19.70;99.90
26537;DHT22;14204;51.262;5.488;2023-08-31T10:01:35;19.50;99.90
26537;DHT22;14204;51.262;5.488;2023-08-31T10:04:02;19.40;99.90
26537;DHT22;14204;51.262;5.488;2023-08-31T10:06:29;19.40;99.90
26537;DHT22;14204;51.262;5.488;2023-08-31T10:08:56;19.70;99.90
26537;DHT22;14204;51.262;5.488;2023-08-31T10:11:27;19.60;99.90
26537;DHT22;14204;51.262;5.488;2023-08-31T10:13:55;19.40;99.90
26537;DHT22;14204;51.262;5.488;2023-08-31T10:16:21;19.40;99.90
26537;DHT22;14204;51.262;5.488;2023-08-31T10:18:48;19.30;99.90
26537;DHT22;14204;51.262;5.488;2023-08-31T10:21:18;19.20;99.90
26537;DHT22;14204;51.262;5.488;2023-08-31T10:23:48;19.10;99.90
26537;DHT22;14204;51.262;5.488;2023-08-31T10:26:31;19.10;99.90
26537;DHT22;14204;51.262;5.488;2023-08-31T10:28:58;19.30;99.90
26537;DHT22;14204;51.262;5.488;2023-08-31T10:31:27;19.40;99.90
26537;DHT22;14204;51.262;5.488;2023-08-31T10:34:06;19.60;99.90
26537;DHT22;14204;51.262;5.488;2023-08-31T10:36:45;19.60;99.90
26537;DHT22;14204;51.262;5.488;2023-08-31T10:39:18;19.40;99.90
26537;DHT22;14204;51.262;5.488;2023-08-31T10:41:56;19.50;99.90
26537;DHT22;14204;51.262;5.488;2023-08-31T10:44:24;19.70;99.90
26537;DHT22;14204;51.262;5.488;2023-08-31T10:46:51;19.70;99.90
26537;DHT22;14204;51.262;5.488;2023-08-31T10:49:21;19.80;99.90
26537;DHT22;14204;51.262;5.488;2023-08-31T10:52:00;20.10;99.90
26537;DHT22;14204;51.262;5.488;2023-08-31T10:54:40;20.30;99.90
26537;DHT22;14204;51.262;5.488;2023-08-31T10:57:06;20.70;99.90
26537;DHT22;14204;51.262;5.488;2023-08-31T10:59:45;20.90;99.90
26537;DHT22;14204;51.262;5.488;2023-08-31T11:02:27;20.90;99.90
26537;DHT22;14204;51.262;5.488;2023-08-31T11:04:54;20.90;99.90
26537;DHT22;14204;51.262;5.488;2023-08-31T11:07:24;20.90;99.90
26537;DHT22;14204;51.262;5.488;2023-08-31T11:09:50;21.10;99.90
26537;DHT22;14204;51.262;5.488;2023-08-31T11:12:16;21.20;99.90
26537;DHT22;14204;51.262;5.488;2023-08-31T11:14:42;21.40;99.90
26537;DHT22;14204;51.262;5.488;2023-08-31T11:17:08;21.60;99.90
26537;DHT22;14204;51.262;5.488;2023-08-31T11:19:35;21.70;99.90
26537;DHT22;14204;51.262;5.488;2023-08-31T11:22:03;21.80;99.90
26537;DHT22;14204;51.262;5.488;2023-08-31T11:24:32;21.70;99.90
26537;DHT22;14204;51.262;5.488;2023-08-31T11:26:58;21.50;99.90
26537;DHT22;14204;51.262;5.488;2023-08-31T11:29:24;21.40;99.90
26537;DHT22;14204;51.262;5.488;2023-08-31T11:31:50;21.60;99.90
26537;DHT22;14204;51.262;5.488;2023-08-31T11:34:17;21.70;99.90
26537;DHT22;14204;51.262;5.488;2023-08-31T11:36:44;21.80;99.90
26537;DHT22;14204;51.262;5.488;2023-08-31T11:39:12;21.80;99.90
26537;DHT22;14204;51.262;5.488;2023-08-31T11:41:39;21.60;99.90
26537;DHT22;14204;51.262;5.488;2023-08-31T11:44:09;21.60;99.90
26537;DHT22;14204;51.262;5.488;2023-08-31T11:46:37;21.60;99.90
26537;DHT22;14204;51.262;5.488;2023-08-31T11:49:03;21.60;99.90
26537;DHT22;14204;51.262;5.488;2023-08-31T11:51:30;21.60;99.90
26537;DHT22;14204;51.262;5.488;2023-08-31T11:53:57;21.70;99.90
26537;DHT22;14204;51.262;5.488;2023-08-31T11:56:25;21.80;99.90
26537;DHT22;14204;51.262;5.488;2023-08-31T11:58:51;21.90;99.90
26537;DHT22;14204;51.262;5.488;2023-08-31T12:01:21;21.80;99.90
26537;DHT22;14204;51.262;5.488;2023-08-31T12:03:50;21.70;99.90
26537;DHT22;14204;51.262;5.488;2023-08-31T12:06:19;21.50;99.90
26537;DHT22;14204;51.262;5.488;2023-08-31T12:08:45;21.70;99.90
26537;DHT22;14204;51.262;5.488;2023-08-31T12:11:11;21.70;99.90
26537;DHT22;14204;51.262;5.488;2023-08-31T12:13:37;21.60;99.90
26537;DHT22;14204;51.262;5.488;2023-08-31T12:16:03;21.80;99.90
26537;DHT22;14204;51.262;5.488;2023-08-31T12:18:30;21.90;99.90
26537;DHT22;14204;51.262;5.488;2023-08-31T12:20:59;21.90;99.90
26537;DHT22;14204;51.262;5.488;2023-08-31T12:23:26;22.10;99.90
26537;DHT22;14204;51.262;5.488;2023-08-31T12:25:55;22.20;99.90
26537;DHT22;14204;51.262;5.488;2023-08-31T12:28:22;22.40;99.90
26537;DHT22;14204;51.262;5.488;2023-08-31T12:30:53;22.50;99.90
26537;DHT22;14204;51.262;5.488;2023-08-31T12:33:20;22.70;99.90
26537;DHT22;14204;51.262;5.488;2023-08-31T12:35:46;22.80;99.90
26537;DHT22;14204;51.262;5.488;2023-08-31T12:38:13;22.80;99.90
26537;DHT22;14204;51.262;5.488;2023-08-31T12:40:39;22.90;99.90
26537;DHT22;14204;51.262;5.488;2023-08-31T12:43:06;23.00;99.90
26537;DHT22;14204;51.262;5.488;2023-08-31T12:45:32;23.10;99.90
26537;DHT22;14204;51.262;5.488;2023-08-31T12:48:05;23.00;99.90
26537;DHT22;14204;51.262;5.488;2023-08-31T12:50:31;23.00;99.90
26537;DHT22;14204;51.262;5.488;2023-08-31T12:52:56;23.10;99.90
26537;DHT22;14204;51.262;5.488;2023-08-31T12:55:22;23.10;99.90
26537;DHT22;14204;51.262;5.488;2023-08-31T12:57:48;23.20;99.90
26537;DHT22;14204;51.262;5.488;2023-08-31T13:00:14;23.20;99.90
26537;DHT22;14204;51.262;5.488;2023-08-31T13:02:41;23.10;99.90
26537;DHT22;14204;51.262;5.488;2023-08-31T13:05:07;23.30;99.90
26537;DHT22;14204;51.262;5.488;2023-08-31T13:07:37;23.40;99.90
26537;DHT22;14204;51.262;5.488;2023-08-31T13:10:04;23.50;99.90
26537;DHT22;14204;51.262;5.488;2023-08-31T13:12:33;23.50;99.90
26537;DHT22;14204;51.262;5.488;2023-08-31T13:14:59;23.50;99.90
26537;DHT22;14204;51.262;5.488;2023-08-31T13:17:25;23.50;99.90
26537;DHT22;14204;51.262;5.488;2023-08-31T13:19:55;23.50;99.90
26537;DHT22;14204;51.262;5.488;2023-08-31T13:22:21;23.60;99.90
26537;DHT22;14204;51.262;5.488;2023-08-31T13:24:47;23.60;99.90
26537;DHT22;14204;51.262;5.488;2023-08-31T13:27:13;23.40;99.90
26537;DHT22;14204;51.262;5.488;2023-08-31T13:29:39;23.30;99.90
26537;DHT22;14204;51.262;5.488;2023-08-31T13:32:05;23.10;99.90
26537;DHT22;14204;51.262;5.488;2023-08-31T13:34:33;23.00;99.90
26537;DHT22;14204;51.262;5.488;2023-08-31T13:36:58;22.90;99.90
26537;DHT22;14204;51.262;5.488;2023-08-31T13:39:26;22.80;99.90
26537;DHT22;14204;51.262;5.488;2023-08-31T13:41:52;22.70;99.90
26537;DHT22;14204;51.262;5.488;2023-08-31T13:44:19;22.70;99.90
26537;DHT22;14204;51.262;5.488;2023-08-31T13:46:46;22.90;99.90
26537;DHT22;14204;51.262;5.488;2023-08-31T13:49:12;22.90;99.90
26537;DHT22;14204;51.262;5.488;2023-08-31T13:51:39;22.90;99.90
26537;DHT22;14204;51.262;5.488;2023-08-31T13:54:05;22.90;99.90
26537;DHT22;14204;51.262;5.488;2023-08-31T13:56:31;22.90;99.90
26537;DHT22;14204;51.262;5.488;2023-08-31T13:58:56;22.70;99.90
26537;DHT22;14204;51.262;5.488;2023-08-31T14:01:22;22.90;99.90
26537;DHT22;14204;51.262;5.488;2023-08-31T14:03:48;22.80;99.90
26537;DHT22;14204;51.262;5.488;2023-08-31T14:06:13;22.70;99.90
26537;DHT22;14204;51.262;5.488;2023-08-31T14:08:40;22.50;99.90
26537;DHT22;14204;51.262;5.488;2023-08-31T14:11:06;22.40;99.90
26537;DHT22;14204;51.262;5.488;2023-08-31T14:13:33;22.30;99.90
26537;DHT22;14204;51.262;5.488;2023-08-31T14:16:00;22.50;99.90
26537;DHT22;14204;51.262;5.488;2023-08-31T14:18:29;22.60;99.90
26537;DHT22;14204;51.262;5.488;2023-08-31T14:20:57;22.50;99.90
26537;DHT22;14204;51.262;5.488;2023-08-31T14:23:26;22.50;99.90
26537;DHT22;14204;51.262;5.488;2023-08-31T14:25:52;22.50;99.90
26537;DHT22;14204;51.262;5.488;2023-08-31T14:28:18;22.40;99.90
26537;DHT22;14204;51.262;5.488;2023-08-31T14:30:44;22.30;99.90
26537;DHT22;14204;51.262;5.488;2023-08-31T14:33:10;22.30;99.90
26537;DHT22;14204;51.262;5.488;2023-08-31T14:35:38;22.20;99.90
26537;DHT22;14204;51.262;5.488;2023-08-31T14:38:05;22.00;99.90
26537;DHT22;14204;51.262;5.488;2023-08-31T14:40:31;22.00;99.90
26537;DHT22;14204;51.262;5.488;2023-08-31T14:42:59;21.90;99.90
26537;DHT22;14204;51.262;5.488;2023-08-31T14:45:25;21.80;99.90
26537;DHT22;14204;51.262;5.488;2023-08-31T14:47:51;21.70;99.90
26537;DHT22;14204;51.262;5.488;2023-08-31T14:50:17;21.60;99.90
26537;DHT22;14204;51.262;5.488;2023-08-31T14:52:42;21.60;99.90
26537;DHT22;14204;51.262;5.488;2023-08-31T14:55:08;21.50;99.90
26537;DHT22;14204;51.262;5.488;2023-08-31T14:57:34;21.40;99.90
26537;DHT22;14204;51.262;5.488;2023-08-31T15:00:00;21.50;99.90
26537;DHT22;14204;51.262;5.488;2023-08-31T15:02:26;21.30;99.90
26537;DHT22;14204;51.262;5.488;2023-08-31T15:04:52;21.20;99.90
26537;DHT22;14204;51.262;5.488;2023-08-31T15:07:18;21.20;99.90
26537;DHT22;14204;51.262;5.488;2023-08-31T15:09:44;21.30;99.90
26537;DHT22;14204;51.262;5.488;2023-08-31T15:12:11;21.30;99.90
26537;DHT22;14204;51.262;5.488;2023-08-31T15:14:37;21.30;99.90
26537;DHT22;14204;51.262;5.488;2023-08-31T15:17:06;21.40;99.90
26537;DHT22;14204;51.262;5.488;2023-08-31T15:19:32;21.40;99.90
26537;DHT22;14204;51.262;5.488;2023-08-31T15:22:01;21.40;99.90
26537;DHT22;14204;51.262;5.488;2023-08-31T15:24:29;21.60;99.90
26537;DHT22;14204;51.262;5.488;2023-08-31T15:26:54;21.60;99.90
26537;DHT22;14204;51.262;5.488;2023-08-31T15:29:21;21.60;99.90
26537;DHT22;14204;51.262;5.488;2023-08-31T15:31:47;21.60;99.90